sensor_id;sensor_type;location;lat;lon;timestamp;temperature;humidity
27667;DHT22;15074;50.940;5.282;2023-05-07T00:02:21;14.30;99.90
27667;DHT22;15074;50.940;5.282;2023-05-07T00:04:48;14.40;99.90
27667;DHT22;15074;50.940;5.282;2023-05-07T00:07:14;14.60;99.90
27667;DHT22;15074;50.940;5.282;2023-05-07T00:09:40;14.80;99.90
27667;DHT22;15074;50.940;5.282;2023-05-07T00:12:06;14.90;99.90
27667;DHT22;15074;50.940;5.282;2023-05-07T00:14:31;14.90;99.90
27667;DHT22;15074;50.940;5.282;2023-05-07T00:16:57;15.00;99.90
27667;DHT22;15074;50.940;5.282;2023-05-07T00:19:23;14.80;99.90
27667;DHT22;15074;50.940;5.282;2023-05-07T00:21:49;14.70;99.90
27667;DHT22;15074;50.940;5.282;2023-05-07T00:24:14;14.60;99.90
27667;DHT22;15074;50.940;5.282;2023-05-07T00:26:40;14.70;99.90
27667;DHT22;15074;50.940;5.282;2023-05-07T00:29:06;14.90;99.90
27667;DHT22;15074;50.940;5.282;2023-05-07T00:31:31;15.10;99.90
27667;DHT22;15074;50.940;5.282;2023-05-07T00:33:57;15.40;99.90
27667;DHT22;15074;50.940;5.282;2023-05-07T00:36:23;15.50;99.90
27667;DHT22;15074;50.940;5.282;2023-05-07T00:38:48;15.50;99.90
27667;DHT22;15074;50.940;5.282;2023-05-07T00:41:14;15.60;99.90
27667;DHT22;15074;50.940;5.282;2023-05-07T00:43:40;15.70;99.90
27667;DHT22;15074;50.940;5.282;2023-05-07T00:46:06;15.80;99.90
27667;DHT22;15074;50.940;5.282;2023-05-07T00:48:32;15.80;99.90
27667;DHT22;15074;50.940;5.282;2023-05-07T00:50:57;15.90;99.90
27667;DHT22;15074;50.940;5.282;2023-05-07T00:53:23;15.80;99.90
27667;DHT22;15074;50.940;5.282;2023-05-07T00:55:49;15.80;99.90
27667;DHT22;15074;50.940;5.282;2023-05-07T00:58:16;15.60;99.90
27667;DHT22;15074;50.940;5.282;2023-05-07T01:00:41;15.60;99.90
27667;DHT22;15074;50.940;5.282;2023-05-07T01:03:07;15.70;99.90
27667;DHT22;15074;50.940;5.282;2023-05-07T01:05:33;15.70;99.90
27667;DHT22;15074;50.940;5.282;2023-05-07T01:07:59;15.80;99.90
27667;DHT22;15074;50.940;5.282;2023-05-07T01:10:25;15.80;99.90
27667;DHT22;15074;50.940;5.282;2023-05-07T01:12:52;15.80;99.90
27667;DHT22;15074;50.940;5.282;2023-05-07T01:15:19;15.80;99.90
27667;DHT22;15074;50.940;5.282;2023-05-07T01:17:45;15.70;99.90
27667;DHT22;15074;50.940;5.282;2023-05-07T01:20:11;15.80;99.90
27667;DHT22;15074;50.940;5.282;2023-05-07T01:22:38;15.70;99.90
27667;DHT22;15074;50.940;5.282;2023-05-07T01:25:05;15.70;99.90
27667;DHT22;15074;50.940;5.282;2023-05-07T01:27:31;15.80;99.90
27667;DHT22;15074;50.940;5.282;2023-05-07T01:29:59;15.70;99.90
27667;DHT22;15074;50.940;5.282;2023-05-07T01:32:32;15.70;99.90
27667;DHT22;15074;50.940;5.282;2023-05-07T01:35:00;15.60;99.90
27667;DHT22;15074;50.940;5.282;2023-05-07T01:37:26;15.60;99.90
27667;DHT22;15074;50.940;5.282;2023-05-07T01:39:53;15.60;99.90
27667;DHT22;15074;50.940;5.282;2023-05-07T01:42:19;15.60;99.90
27667;DHT22;15074;50.940;5.282;2023-05-07T01:44:45;15.70;99.90
27667;DHT22;15074;50.940;5.282;2023-05-07T01:47:12;15.70;99.90
27667;DHT22;15074;50.940;5.282;2023-05-07T01:49:39;15.60;99.90
27667;DHT22;15074;50.940;5.282;2023-05-07T01:52:05;15.70;99.90
27667;DHT22;15074;50.940;5.282;2023-05-07T01:54:31;15.50;99.90
27667;DHT22;15074;50.940;5.282;2023-05-07T01:56:57;15.50;99.90
27667;DHT22;15074;50.940;5.282;2023-05-07T01:59:23;15.60;99.90
27667;DHT22;15074;50.940;5.282;2023-05-07T02:01:48;15.50;99.90
27667;DHT22;15074;50.940;5.282;2023-05-07T02:04:14;15.40;99.90
27667;DHT22;15074;50.940;5.282;2023-05-07T02:06:40;15.20;99.90
27667;DHT22;15074;50.940;5.282;2023-05-07T02:09:05;15.20;99.90
27667;DHT22;15074;50.940;5.282;2023-05-07T02:11:31;15.40;99.90
27667;DHT22;15074;50.940;5.282;2023-05-07T02:13:57;15.40;99.90
27667;DHT22;15074;50.940;5.282;2023-05-07T02:16:22;15.40;99.90
27667;DHT22;15074;50.940;5.282;2023-05-07T02:18:49;15.10;99.90
27667;DHT22;15074;50.940;5.282;2023-05-07T02:21:15;14.90;99.90
27667;DHT22;15074;50.940;5.282;2023-05-07T02:23:40;14.90;99.90
27667;DHT22;15074;50.940;5.282;2023-05-07T02:26:06;14.80;99.90
27667;DHT22;15074;50.940;5.282;2023-05-07T02:28:32;14.60;99.90
27667;DHT22;15074;50.940;5.282;2023-05-07T02:30:57;14.60;99.90
27667;DHT22;15074;50.940;5.282;2023-05-07T02:33:26;14.60;99.90
27667;DHT22;15074;50.940;5.282;2023-05-07T02:35:51;14.60;99.90
27667;DHT22;15074;50.940;5.282;2023-05-07T02:38:17;14.70;99.90
27667;DHT22;15074;50.940;5.282;2023-05-07T02:40:43;14.80;99.90
27667;DHT22;15074;50.940;5.282;2023-05-07T02:43:09;14.90;99.90
27667;DHT22;15074;50.940;5.282;2023-05-07T02:45:35;15.20;99.90
27667;DHT22;15074;50.940;5.282;2023-05-07T02:48:03;15.30;99.90
27667;DHT22;15074;50.940;5.282;2023-05-07T02:50:29;15.40;99.90
27667;DHT22;15074;50.940;5.282;2023-05-07T02:52:55;15.40;99.90
27667;DHT22;15074;50.940;5.282;2023-05-07T02:55:21;15.20;99.90
27667;DHT22;15074;50.940;5.282;2023-05-07T02:57:46;15.00;99.90
27667;DHT22;15074;50.940;5.282;2023-05-07T03:00:17;14.80;99.90
27667;DHT22;15074;50.940;5.282;2023-05-07T03:02:43;14.70;99.90
27667;DHT22;15074;50.940;5.282;2023-05-07T03:05:09;14.80;99.90
27667;DHT22;15074;50.940;5.282;2023-05-07T03:07:36;14.90;99.90
27667;DHT22;15074;50.940;5.282;2023-05-07T03:10:03;15.00;99.90
27667;DHT22;15074;50.940;5.282;2023-05-07T03:12:29;15.20;99.90
27667;DHT22;15074;50.940;5.282;2023-05-07T03:14:55;15.30;99.90
27667;DHT22;15074;50.940;5.282;2023-05-07T03:17:22;15.30;99.90
27667;DHT22;15074;50.940;5.282;2023-05-07T03:19:48;15.40;99.90
27667;DHT22;15074;50.940;5.282;2023-05-07T03:22:14;15.50;99.90
27667;DHT22;15074;50.940;5.282;2023-05-07T03:24:40;15.40;99.90
27667;DHT22;15074;50.940;5.282;2023-05-07T03:27:05;15.50;99.90
27667;DHT22;15074;50.940;5.282;2023-05-07T03:29:31;15.40;99.90
27667;DHT22;15074;50.940;5.282;2023-05-07T03:31:57;15.50;99.90
27667;DHT22;15074;50.940;5.282;2023-05-07T03:34:22;15.60;99.90
27667;DHT22;15074;50.940;5.282;2023-05-07T03:36:49;15.60;99.90
27667;DHT22;15074;50.940;5.282;2023-05-07T03:39:14;15.40;99.90
27667;DHT22;15074;50.940;5.282;2023-05-07T03:41:40;15.20;99.90
27667;DHT22;15074;50.940;5.282;2023-05-07T03:44:06;15.20;99.90
27667;DHT22;15074;50.940;5.282;2023-05-07T03:46:32;15.10;99.90
27667;DHT22;15074;50.940;5.282;2023-05-07T03:48:58;14.90;99.90
27667;DHT22;15074;50.940;5.282;2023-05-07T03:51:24;14.90;99.90
27667;DHT22;15074;50.940;5.282;2023-05-07T03:53:51;15.10;99.90
27667;DHT22;15074;50.940;5.282;2023-05-07T03:56:18;15.10;99.90
27667;DHT22;15074;50.940;5.282;2023-05-07T03:58:44;15.20;99.90
27667;DHT22;15074;50.940;5.282;2023-05-07T04:01:10;15.20;99.90
27667;DHT22;15074;50.940;5.282;2023-05-07T04:03:37;15.00;99.90
27667;DHT22;15074;50.940;5.282;2023-05-07T04:06:02;14.90;99.90
27667;DHT22;15074;50.940;5.282;2023-05-07T04:08:28;14.80;99.90
27667;DHT22;15074;50.940;5.282;2023-05-07T04:10:57;14.80;99.90
27667;DHT22;15074;50.940;5.282;2023-05-07T04:13:24;14.80;99.90
27667;DHT22;15074;50.940;5.282;2023-05-07T04:15:50;15.00;99.90
27667;DHT22;15074;50.940;5.282;2023-05-07T04:18:16;15.00;99.90
27667;DHT22;15074;50.940;5.282;2023-05-07T04:20:41;15.00;99.90
27667;DHT22;15074;50.940;5.282;2023-05-07T04:23:08;15.10;99.90
27667;DHT22;15074;50.940;5.282;2023-05-07T04:25:34;15.00;99.90
27667;DHT22;15074;50.940;5.282;2023-05-07T04:27:59;15.00;99.90
27667;DHT22;15074;50.940;5.282;2023-05-07T04:30:25;15.20;99.90
27667;DHT22;15074;50.940;5.282;2023-05-07T04:32:51;15.40;99.90
27667;DHT22;15074;50.940;5.282;2023-05-07T04:35:18;15.50;99.90
27667;DHT22;15074;50.940;5.282;2023-05-07T04:37:43;15.60;99.90
27667;DHT22;15074;50.940;5.282;2023-05-07T04:40:09;15.70;99.90
27667;DHT22;15074;50.940;5.282;2023-05-07T04:42:35;15.70;99.90
27667;DHT22;15074;50.940;5.282;2023-05-07T04:45:01;15.80;99.90
27667;DHT22;15074;50.940;5.282;2023-05-07T04:47:27;15.90;99.90
27667;DHT22;15074;50.940;5.282;2023-05-07T04:49:53;16.00;99.90
27667;DHT22;15074;50.940;5.282;2023-05-07T04:52:18;16.00;99.90
27667;DHT22;15074;50.940;5.282;2023-05-07T04:54:44;16.00;99.90
27667;DHT22;15074;50.940;5.282;2023-05-07T04:57:10;16.10;99.90
27667;DHT22;15074;50.940;5.282;2023-05-07T04:59:36;16.10;99.90
27667;DHT22;15074;50.940;5.282;2023-05-07T05:02:02;15.80;99.90
27667;DHT22;15074;50.940;5.282;2023-05-07T05:04:29;15.70;99.90
27667;DHT22;15074;50.940;5.282;2023-05-07T05:06:55;15.50;99.90
27667;DHT22;15074;50.940;5.282;2023-05-07T05:09:21;15.40;99.90
27667;DHT22;15074;50.940;5.282;2023-05-07T05:11:46;15.40;99.90
27667;DHT22;15074;50.940;5.282;2023-05-07T05:14:12;15.50;99.90
27667;DHT22;15074;50.940;5.282;2023-05-07T05:16:37;15.60;99.90
27667;DHT22;15074;50.940;5.282;2023-05-07T05:19:03;15.70;99.90
27667;DHT22;15074;50.940;5.282;2023-05-07T05:21:29;15.60;99.90
27667;DHT22;15074;50.940;5.282;2023-05-07T05:23:54;15.70;99.90
27667;DHT22;15074;50.940;5.282;2023-05-07T05:26:20;15.80;99.90
27667;DHT22;15074;50.940;5.282;2023-05-07T05:28:46;15.80;99.90
27667;DHT22;15074;50.940;5.282;2023-05-07T05:31:12;15.80;99.90
27667;DHT22;15074;50.940;5.282;2023-05-07T05:33:39;15.80;99.90
27667;DHT22;15074;50.940;5.282;2023-05-07T05:36:06;15.90;99.90
27667;DHT22;15074;50.940;5.282;2023-05-07T05:38:32;15.80;99.90
27667;DHT22;15074;50.940;5.282;2023-05-07T05:40:57;15.90;99.90
27667;DHT22;15074;50.940;5.282;2023-05-07T05:43:23;15.80;99.90
27667;DHT22;15074;50.940;5.282;2023-05-07T05:45:49;15.90;99.90
27667;DHT22;15074;50.940;5.282;2023-05-07T05:48:14;15.90;99.90
27667;DHT22;15074;50.940;5.282;2023-05-07T05:50:42;16.30;99.90
27667;DHT22;15074;50.940;5.282;2023-05-07T05:53:08;16.60;99.90
27667;DHT22;15074;50.940;5.282;2023-05-07T05:55:34;17.00;99.90
27667;DHT22;15074;50.940;5.282;2023-05-07T05:58:00;17.20;99.90
27667;DHT22;15074;50.940;5.282;2023-05-07T06:00:27;17.10;99.90
27667;DHT22;15074;50.940;5.282;2023-05-07T06:02:53;17.00;99.90
27667;DHT22;15074;50.940;5.282;2023-05-07T06:05:18;16.90;99.90
27667;DHT22;15074;50.940;5.282;2023-05-07T06:07:44;16.90;99.90
27667;DHT22;15074;50.940;5.282;2023-05-07T06:10:10;17.10;99.90
27667;DHT22;15074;50.940;5.282;2023-05-07T06:12:35;17.10;99.90
27667;DHT22;15074;50.940;5.282;2023-05-07T06:15:01;17.10;99.90
27667;DHT22;15074;50.940;5.282;2023-05-07T06:17:27;17.10;99.90
27667;DHT22;15074;50.940;5.282;2023-05-07T06:19:53;17.20;99.90
27667;DHT22;15074;50.940;5.282;2023-05-07T06:22:18;17.50;99.90
27667;DHT22;15074;50.940;5.282;2023-05-07T06:24:44;17.50;99.90
27667;DHT22;15074;50.940;5.282;2023-05-07T06:27:10;17.40;99.90
27667;DHT22;15074;50.940;5.282;2023-05-07T06:29:36;17.50;99.90
27667;DHT22;15074;50.940;5.282;2023-05-07T06:32:12;17.50;99.90
27667;DHT22;15074;50.940;5.282;2023-05-07T06:34:39;17.50;99.90
27667;DHT22;15074;50.940;5.282;2023-05-07T06:37:06;17.50;99.90
27667;DHT22;15074;50.940;5.282;2023-05-07T06:39:32;17.50;99.90
27667;DHT22;15074;50.940;5.282;2023-05-07T06:41:58;17.70;99.90
27667;DHT22;15074;50.940;5.282;2023-05-07T06:44:23;18.00;99.90
27667;DHT22;15074;50.940;5.282;2023-05-07T06:46:49;18.20;99.90
27667;DHT22;15074;50.940;5.282;2023-05-07T06:49:15;18.00;99.90
27667;DHT22;15074;50.940;5.282;2023-05-07T06:51:41;17.90;99.90
27667;DHT22;15074;50.940;5.282;2023-05-07T06:54:07;17.80;99.90
27667;DHT22;15074;50.940;5.282;2023-05-07T06:56:33;17.60;99.90
27667;DHT22;15074;50.940;5.282;2023-05-07T06:59:00;17.60;99.90
27667;DHT22;15074;50.940;5.282;2023-05-07T07:01:26;17.90;99.90
27667;DHT22;15074;50.940;5.282;2023-05-07T07:03:52;17.90;99.90
27667;DHT22;15074;50.940;5.282;2023-05-07T07:06:17;17.90;99.90
27667;DHT22;15074;50.940;5.282;2023-05-07T07:08:43;17.90;99.90
27667;DHT22;15074;50.940;5.282;2023-05-07T07:11:10;17.90;99.90
27667;DHT22;15074;50.940;5.282;2023-05-07T07:13:35;17.90;99.90
27667;DHT22;15074;50.940;5.282;2023-05-07T07:16:03;17.90;99.90
27667;DHT22;15074;50.940;5.282;2023-05-07T07:18:28;18.30;99.90
27667;DHT22;15074;50.940;5.282;2023-05-07T07:20:54;18.50;99.90
27667;DHT22;15074;50.940;5.282;2023-05-07T07:23:20;18.60;99.90
27667;DHT22;15074;50.940;5.282;2023-05-07T07:25:46;18.50;99.90
27667;DHT22;15074;50.940;5.282;2023-05-07T07:28:12;18.60;99.90
27667;DHT22;15074;50.940;5.282;2023-05-07T07:30:38;19.00;99.90
27667;DHT22;15074;50.940;5.282;2023-05-07T07:33:04;19.10;99.90
27667;DHT22;15074;50.940;5.282;2023-05-07T07:35:31;19.60;99.90
27667;DHT22;15074;50.940;5.282;2023-05-07T07:37:57;19.70;99.90
27667;DHT22;15074;50.940;5.282;2023-05-07T07:40:23;19.90;99.90
27667;DHT22;15074;50.940;5.282;2023-05-07T07:42:49;19.80;99.90
27667;DHT22;15074;50.940;5.282;2023-05-07T07:45:14;19.80;99.90
27667;DHT22;15074;50.940;5.282;2023-05-07T07:47:40;20.20;99.90
27667;DHT22;15074;50.940;5.282;2023-05-07T07:50:07;20.70;99.90
27667;DHT22;15074;50.940;5.282;2023-05-07T07:52:33;20.70;99.90
27667;DHT22;15074;50.940;5.282;2023-05-07T07:54:59;20.70;99.90
27667;DHT22;15074;50.940;5.282;2023-05-07T07:57:24;20.40;99.90
27667;DHT22;15074;50.940;5.282;2023-05-07T07:59:50;20.50;99.90
27667;DHT22;15074;50.940;5.282;2023-05-07T08:02:17;20.70;99.90
27667;DHT22;15074;50.940;5.282;2023-05-07T08:04:43;20.70;99.90
27667;DHT22;15074;50.940;5.282;2023-05-07T08:07:09;20.70;99.90
27667;DHT22;15074;50.940;5.282;2023-05-07T08:09:37;20.90;99.90
27667;DHT22;15074;50.940;5.282;2023-05-07T08:12:03;20.80;99.90
27667;DHT22;15074;50.940;5.282;2023-05-07T08:14:29;21.10;99.90
27667;DHT22;15074;50.940;5.282;2023-05-07T08:16:55;21.50;99.90
27667;DHT22;15074;50.940;5.282;2023-05-07T08:19:21;22.10;99.90
27667;DHT22;15074;50.940;5.282;2023-05-07T08:21:47;22.60;99.90
27667;DHT22;15074;50.940;5.282;2023-05-07T08:24:16;23.20;99.90
27667;DHT22;15074;50.940;5.282;2023-05-07T08:26:43;23.20;99.90
27667;DHT22;15074;50.940;5.282;2023-05-07T08:29:11;22.80;99.90
27667;DHT22;15074;50.940;5.282;2023-05-07T08:31:36;22.60;99.90
27667;DHT22;15074;50.940;5.282;2023-05-07T08:34:04;22.10;99.90
27667;DHT22;15074;50.940;5.282;2023-05-07T08:36:30;22.10;99.90
27667;DHT22;15074;50.940;5.282;2023-05-07T08:38:56;22.80;99.90
27667;DHT22;15074;50.940;5.282;2023-05-07T08:41:21;22.50;99.90
27667;DHT22;15074;50.940;5.282;2023-05-07T08:43:49;22.40;99.90
27667;DHT22;15074;50.940;5.282;2023-05-07T08:46:20;22.60;99.90
27667;DHT22;15074;50.940;5.282;2023-05-07T08:48:48;23.00;99.90
27667;DHT22;15074;50.940;5.282;2023-05-07T08:51:17;23.00;99.90
27667;DHT22;15074;50.940;5.282;2023-05-07T08:53:43;23.40;99.90
27667;DHT22;15074;50.940;5.282;2023-05-07T08:56:09;24.10;99.90
27667;DHT22;15074;50.940;5.282;2023-05-07T08:58:35;25.00;99.90
27667;DHT22;15074;50.940;5.282;2023-05-07T09:01:07;26.50;99.90
27667;DHT22;15074;50.940;5.282;2023-05-07T09:03:33;27.90;99.90
27667;DHT22;15074;50.940;5.282;2023-05-07T09:05:58;28.60;99.90
27667;DHT22;15074;50.940;5.282;2023-05-07T09:08:26;29.60;99.90
27667;DHT22;15074;50.940;5.282;2023-05-07T09:10:52;28.80;99.90
27667;DHT22;15074;50.940;5.282;2023-05-07T09:13:17;28.00;99.90
27667;DHT22;15074;50.940;5.282;2023-05-07T09:15:43;27.60;99.90
27667;DHT22;15074;50.940;5.282;2023-05-07T09:18:09;26.30;99.90
27667;DHT22;15074;50.940;5.282;2023-05-07T09:20:37;26.00;99.90
27667;DHT22;15074;50.940;5.282;2023-05-07T09:23:03;26.20;99.90
27667;DHT22;15074;50.940;5.282;2023-05-07T09:25:33;26.40;99.90
27667;DHT22;15074;50.940;5.282;2023-05-07T09:27:59;26.30;99.90
27667;DHT22;15074;50.940;5.282;2023-05-07T09:30:29;26.40;99.90
27667;DHT22;15074;50.940;5.282;2023-05-07T09:32:59;26.20;99.90
27667;DHT22;15074;50.940;5.282;2023-05-07T09:35:26;25.90;99.90
27667;DHT22;15074;50.940;5.282;2023-05-07T09:37:59;26.00;99.90
27667;DHT22;15074;50.940;5.282;2023-05-07T09:40:29;26.20;99.90
27667;DHT22;15074;50.940;5.282;2023-05-07T09:42:56;26.30;99.90
27667;DHT22;15074;50.940;5.282;2023-05-07T09:45:25;26.50;99.90
27667;DHT22;15074;50.940;5.282;2023-05-07T09:47:54;26.40;99.90
27667;DHT22;15074;50.940;5.282;2023-05-07T09:50:29;26.20;99.90
27667;DHT22;15074;50.940;5.282;2023-05-07T09:52:56;26.40;99.90
27667;DHT22;15074;50.940;5.282;2023-05-07T09:55:22;25.40;99.90
27667;DHT22;15074;50.940;5.282;2023-05-07T09:57:50;25.10;99.90
27667;DHT22;15074;50.940;5.282;2023-05-07T10:00:19;25.20;99.90
27667;DHT22;15074;50.940;5.282;2023-05-07T10:02:50;24.60;99.90
27667;DHT22;15074;50.940;5.282;2023-05-07T10:05:18;24.50;99.90
27667;DHT22;15074;50.940;5.282;2023-05-07T10:07:46;24.10;99.90
27667;DHT22;15074;50.940;5.282;2023-05-07T10:10:12;24.00;99.90
27667;DHT22;15074;50.940;5.282;2023-05-07T10:12:38;23.60;99.90
27667;DHT22;15074;50.940;5.282;2023-05-07T10:15:09;23.40;99.90
27667;DHT22;15074;50.940;5.282;2023-05-07T10:17:39;23.20;99.90
27667;DHT22;15074;50.940;5.282;2023-05-07T10:20:06;22.70;99.90
27667;DHT22;15074;50.940;5.282;2023-05-07T10:25:14;22.00;99.90
27667;DHT22;15074;50.940;5.282;2023-05-07T10:27:40;22.10;99.90
27667;DHT22;15074;50.940;5.282;2023-05-07T10:32:49;22.00;99.90
27667;DHT22;15074;50.940;5.282;2023-05-07T10:35:23;21.90;99.90
27667;DHT22;15074;50.940;5.282;2023-05-07T10:37:50;21.90;99.90
27667;DHT22;15074;50.940;5.282;2023-05-07T10:40:16;21.50;99.90
27667;DHT22;15074;50.940;5.282;2023-05-07T10:43:05;21.50;99.90
27667;DHT22;15074;50.940;5.282;2023-05-07T10:45:32;21.60;99.90
27667;DHT22;15074;50.940;5.282;2023-05-07T10:48:06;21.70;99.90
27667;DHT22;15074;50.940;5.282;2023-05-07T10:50:32;21.60;99.90
27667;DHT22;15074;50.940;5.282;2023-05-07T10:55:44;21.60;99.90
27667;DHT22;15074;50.940;5.282;2023-05-07T10:58:25;21.50;99.90
27667;DHT22;15074;50.940;5.282;2023-05-07T11:01:00;21.40;99.90
27667;DHT22;15074;50.940;5.282;2023-05-07T11:03:27;21.50;99.90
27667;DHT22;15074;50.940;5.282;2023-05-07T11:06:22;21.50;99.90
27667;DHT22;15074;50.940;5.282;2023-05-07T11:11:19;21.20;99.90
27667;DHT22;15074;50.940;5.282;2023-05-07T11:13:48;21.10;99.90
27667;DHT22;15074;50.940;5.282;2023-05-07T11:16:19;21.20;99.90
27667;DHT22;15074;50.940;5.282;2023-05-07T11:18:50;21.30;99.90
27667;DHT22;15074;50.940;5.282;2023-05-07T11:21:48;20.90;99.90
27667;DHT22;15074;50.940;5.282;2023-05-07T11:24:14;20.80;99.90
27667;DHT22;15074;50.940;5.282;2023-05-07T11:29:12;20.40;99.90
27667;DHT22;15074;50.940;5.282;2023-05-07T11:31:38;20.20;99.90
27667;DHT22;15074;50.940;5.282;2023-05-07T11:34:04;19.90;99.90
27667;DHT22;15074;50.940;5.282;2023-05-07T11:36:32;19.90;99.90
27667;DHT22;15074;50.940;5.282;2023-05-07T11:38:58;20.00;99.90
27667;DHT22;15074;50.940;5.282;2023-05-07T11:41:34;19.70;99.90
27667;DHT22;15074;50.940;5.282;2023-05-07T11:44:00;19.60;99.90
27667;DHT22;15074;50.940;5.282;2023-05-07T11:46:27;19.60;99.90
27667;DHT22;15074;50.940;5.282;2023-05-07T11:48:54;19.50;99.90
27667;DHT22;15074;50.940;5.282;2023-05-07T11:51:21;19.80;99.90
27667;DHT22;15074;50.940;5.282;2023-05-07T11:53:47;20.00;99.90
27667;DHT22;15074;50.940;5.282;2023-05-07T11:56:16;20.20;99.90
27667;DHT22;15074;50.940;5.282;2023-05-07T11:58:42;20.30;99.90
27667;DHT22;15074;50.940;5.282;2023-05-07T12:01:10;20.30;99.90
27667;DHT22;15074;50.940;5.282;2023-05-07T12:03:46;20.20;99.90
27667;DHT22;15074;50.940;5.282;2023-05-07T12:06:13;20.10;99.90
27667;DHT22;15074;50.940;5.282;2023-05-07T12:08:40;19.90;99.90
27667;DHT22;15074;50.940;5.282;2023-05-07T12:11:25;20.00;99.90
27667;DHT22;15074;50.940;5.282;2023-05-07T12:13:51;20.00;99.90
27667;DHT22;15074;50.940;5.282;2023-05-07T12:16:19;20.10;99.90
27667;DHT22;15074;50.940;5.282;2023-05-07T12:18:45;20.00;99.90
27667;DHT22;15074;50.940;5.282;2023-05-07T12:21:11;20.00;99.90
27667;DHT22;15074;50.940;5.282;2023-05-07T12:23:39;19.90;99.90
27667;DHT22;15074;50.940;5.282;2023-05-07T12:26:05;20.10;99.90
27667;DHT22;15074;50.940;5.282;2023-05-07T12:28:35;20.30;99.90
27667;DHT22;15074;50.940;5.282;2023-05-07T12:31:01;20.50;99.90
27667;DHT22;15074;50.940;5.282;2023-05-07T12:33:28;20.50;99.90
27667;DHT22;15074;50.940;5.282;2023-05-07T12:35:55;20.50;99.90
27667;DHT22;15074;50.940;5.282;2023-05-07T12:38:22;20.50;99.90
27667;DHT22;15074;50.940;5.282;2023-05-07T12:40:53;20.20;99.90
27667;DHT22;15074;50.940;5.282;2023-05-07T12:43:21;20.30;99.90
27667;DHT22;15074;50.940;5.282;2023-05-07T12:45:49;20.40;99.90
27667;DHT22;15074;50.940;5.282;2023-05-07T12:48:16;20.50;99.90
27667;DHT22;15074;50.940;5.282;2023-05-07T12:50:42;20.60;99.90
27667;DHT22;15074;50.940;5.282;2023-05-07T12:53:10;20.50;99.90
27667;DHT22;15074;50.940;5.282;2023-05-07T12:55:46;20.50;99.90
27667;DHT22;15074;50.940;5.282;2023-05-07T12:58:28;20.80;99.90
27667;DHT22;15074;50.940;5.282;2023-05-07T13:00:55;20.80;99.90
27667;DHT22;15074;50.940;5.282;2023-05-07T13:03:31;20.80;99.90
27667;DHT22;15074;50.940;5.282;2023-05-07T13:05:59;20.90;99.90
27667;DHT22;15074;50.940;5.282;2023-05-07T13:08:35;21.10;99.90
27667;DHT22;15074;50.940;5.282;2023-05-07T13:11:11;21.40;99.90
27667;DHT22;15074;50.940;5.282;2023-05-07T13:13:39;21.10;99.90
27667;DHT22;15074;50.940;5.282;2023-05-07T13:16:07;21.10;99.90
27667;DHT22;15074;50.940;5.282;2023-05-07T13:18:33;21.30;99.90
27667;DHT22;15074;50.940;5.282;2023-05-07T13:21:00;21.60;99.90
27667;DHT22;15074;50.940;5.282;2023-05-07T13:23:26;21.50;99.90
27667;DHT22;15074;50.940;5.282;2023-05-07T13:25:52;21.30;99.90
27667;DHT22;15074;50.940;5.282;2023-05-07T13:28:19;21.30;99.90
27667;DHT22;15074;50.940;5.282;2023-05-07T13:30:46;21.50;99.90
27667;DHT22;15074;50.940;5.282;2023-05-07T13:33:12;21.50;99.90
27667;DHT22;15074;50.940;5.282;2023-05-07T13:35:37;21.70;99.90
27667;DHT22;15074;50.940;5.282;2023-05-07T13:38:03;21.90;99.90
27667;DHT22;15074;50.940;5.282;2023-05-07T13:40:29;21.80;99.90
27667;DHT22;15074;50.940;5.282;2023-05-07T13:42:57;22.10;99.90
27667;DHT22;15074;50.940;5.282;2023-05-07T13:45:24;22.20;99.90
27667;DHT22;15074;50.940;5.282;2023-05-07T13:47:51;22.40;99.90
27667;DHT22;15074;50.940;5.282;2023-05-07T13:50:17;22.20;99.90
27667;DHT22;15074;50.940;5.282;2023-05-07T13:52:44;22.10;99.90
27667;DHT22;15074;50.940;5.282;2023-05-07T13:55:23;22.20;99.90
27667;DHT22;15074;50.940;5.282;2023-05-07T13:57:55;22.30;99.90
27667;DHT22;15074;50.940;5.282;2023-05-07T14:00:22;22.20;99.90
27667;DHT22;15074;50.940;5.282;2023-05-07T14:02:48;22.30;99.90
27667;DHT22;15074;50.940;5.282;2023-05-07T14:05:16;22.40;99.90
27667;DHT22;15074;50.940;5.282;2023-05-07T14:07:42;22.50;99.90
27667;DHT22;15074;50.940;5.282;2023-05-07T14:10:08;22.00;99.90
27667;DHT22;15074;50.940;5.282;2023-05-07T14:12:34;22.00;99.90
27667;DHT22;15074;50.940;5.282;2023-05-07T14:15:00;22.10;99.90
27667;DHT22;15074;50.940;5.282;2023-05-07T14:17:26;22.30;99.90
27667;DHT22;15074;50.940;5.282;2023-05-07T14:19:53;22.50;99.90
27667;DHT22;15074;50.940;5.282;2023-05-07T14:22:22;22.60;99.90
27667;DHT22;15074;50.940;5.282;2023-05-07T14:24:49;22.70;99.90
27667;DHT22;15074;50.940;5.282;2023-05-07T14:27:15;22.50;99.90
27667;DHT22;15074;50.940;5.282;2023-05-07T14:29:41;22.40;99.90
27667;DHT22;15074;50.940;5.282;2023-05-07T14:32:08;22.10;99.90
27667;DHT22;15074;50.940;5.282;2023-05-07T14:34:33;22.40;99.90
27667;DHT22;15074;50.940;5.282;2023-05-07T14:36:59;22.20;99.90
27667;DHT22;15074;50.940;5.282;2023-05-07T14:39:25;21.80;99.90
27667;DHT22;15074;50.940;5.282;2023-05-07T14:41:51;21.50;99.90
27667;DHT22;15074;50.940;5.282;2023-05-07T14:44:17;21.30;99.90
27667;DHT22;15074;50.940;5.282;2023-05-07T14:46:43;21.00;99.90
27667;DHT22;15074;50.940;5.282;2023-05-07T14:49:08;21.10;99.90
27667;DHT22;15074;50.940;5.282;2023-05-07T14:51:43;21.30;99.90
27667;DHT22;15074;50.940;5.282;2023-05-07T14:54:09;21.20;99.90
27667;DHT22;15074;50.940;5.282;2023-05-07T14:56:35;21.40;99.90
27667;DHT22;15074;50.940;5.282;2023-05-07T14:59:02;21.70;99.90
27667;DHT22;15074;50.940;5.282;2023-05-07T15:01:28;21.80;99.90
27667;DHT22;15074;50.940;5.282;2023-05-07T15:03:54;21.60;99.90
27667;DHT22;15074;50.940;5.282;2023-05-07T15:06:21;21.30;99.90
27667;DHT22;15074;50.940;5.282;2023-05-07T15:08:47;21.40;99.90
27667;DHT22;15074;50.940;5.282;2023-05-07T15:11:14;21.40;99.90
27667;DHT22;15074;50.940;5.282;2023-05-07T15:13:41;21.50;99.90
27667;DHT22;15074;50.940;5.282;2023-05-07T15:16:06;21.60;99.90
27667;DHT22;15074;50.940;5.282;2023-05-07T15:18:32;21.60;99.90
27667;DHT22;15074;50.940;5.282;2023-05-07T15:20:58;21.70;99.90
27667;DHT22;15074;50.940;5.282;2023-05-07T15:23:24;21.90;99.90
27667;DHT22;15074;50.940;5.282;2023-05-07T15:25:49;21.90;99.90
27667;DHT22;15074;50.940;5.282;2023-05-07T15:28:15;21.60;99.90
27667;DHT22;15074;50.940;5.282;2023-05-07T15:30:41;21.70;99.90
27667;DHT22;15074;50.940;5.282;2023-05-07T15:33:07;21.70;99.90
27667;DHT22;15074;50.940;5.282;2023-05-07T15:35:32;22.00;99.90
27667;DHT22;15074;50.940;5.282;2023-05-07T15:37:58;21.90;99.90
27667;DHT22;15074;50.940;5.282;2023-05-07T15:40:24;21.70;99.90
27667;DHT22;15074;50.940;5.282;2023-05-07T15:42:54;21.20;99.90